Portada
METAR-TAF:

METAR-TAF

Aeroports :

Grazzanise, Itàlia

latitud: 41-03N, longitud: 014-04E, altitud: 9 m

Observació

L'informe es va fer fa 1 hora i 11 minuts, a les 21:55 UTC
Vent 2 kt del Nord/Nord-Oest
Temperatura 25°C
Humitat 100%
Pressió 1015 hPa
Visibilitat 10 km o més
sense núvols per sota de 1500 mi sense presència de cumulonimbus.

METAR: LIRM 182155Z 33002KT CAVOK 25/25 Q1015 RMK SKC VIS MIN 9999 WIND THR06 01002KT BLU

Hora: 01:06 (23:06 UTC)

Pronòstic

L'informe es va fer fa 3 hores i 6 minuts, a les 20:00 UTC
Pronòstic vàlid del 18 a les 21 UTC al 19 a les 06 UTC
Vent 4 kt del Sud
Visibilitat 10 km o més
sense núvols per sota de 1500 mi sense presència de cumulonimbus.

TAF: LIRM 182000Z 1821/1906 17004KT CAVOK

Observacions i pronòstics meteorològics de més de 4000 aeroports (METAR i TAF).

Les estacions disponibles són els punts grocs i vermells al mapa.

Posi el ratolí al punt desitjat per veure el nom de l'estació.

Feu clic per veure les observacions i els pronòstics meteorològics.

Per canviar el mapa: feu clic els botons verds amb una creu de color negre per apropar; al botó verd amb un guió per allunyar la imatge; o en les fletxes verdes per a mapes adjacents.


METAR-TAF: